createdAt,value
2019-04-01T00:03:20.463Z,10.10
2019-04-01T00:08:13.385Z,10.10
2019-04-01T00:13:05.929Z,10.00
2019-04-01T00:17:58.319Z,9.90
2019-04-01T00:22:51.025Z,9.80
2019-04-01T00:27:43.786Z,9.70
2019-04-01T00:32:36.032Z,9.60
2019-04-01T00:37:28.467Z,9.60
2019-04-01T00:42:22.589Z,9.50
2019-04-01T00:47:15.261Z,9.40
2019-04-01T00:52:07.641Z,9.30
2019-04-01T00:57:00.048Z,9.20
2019-04-01T01:01:52.509Z,9.20
2019-04-01T01:06:45.018Z,9.20
2019-04-01T01:11:37.374Z,9.10
2019-04-01T01:16:29.542Z,9.10
2019-04-01T01:21:22.153Z,9.10
2019-04-01T01:26:14.718Z,8.90
2019-04-01T01:31:07.283Z,8.90
2019-04-01T01:35:59.605Z,8.90
2019-04-01T01:40:52.322Z,8.80
2019-04-01T01:45:44.817Z,8.80
2019-04-01T01:50:37.385Z,8.70
2019-04-01T01:55:30.119Z,8.60
2019-04-01T02:00:23.841Z,8.60
2019-04-01T02:05:16.315Z,8.50
2019-04-01T02:10:09.333Z,8.40
2019-04-01T02:15:01.847Z,8.40
2019-04-01T02:19:54.017Z,8.30
2019-04-01T02:24:46.645Z,8.20
2019-04-01T02:29:39.316Z,8.20
2019-04-01T02:34:31.882Z,8.20
2019-04-01T02:39:24.468Z,8.10
2019-04-01T02:44:16.978Z,8.00
2019-04-01T02:49:09.570Z,8.00
2019-04-01T02:54:02.261Z,7.90
2019-04-01T02:58:55.019Z,7.80
2019-04-01T03:03:47.720Z,7.80
2019-04-01T03:08:40.134Z,7.80
2019-04-01T03:13:32.812Z,7.80
2019-04-01T03:18:25.554Z,7.70
2019-04-01T03:23:18.337Z,7.60
2019-04-01T03:28:10.916Z,7.50
2019-04-01T03:33:03.541Z,7.50
2019-04-01T03:37:56.077Z,7.40
2019-04-01T03:42:48.517Z,7.50
2019-04-01T03:47:42.901Z,7.40
2019-04-01T03:52:35.763Z,7.30
2019-04-01T03:57:28.557Z,7.30
2019-04-01T04:02:21.262Z,7.20
2019-04-01T04:07:13.848Z,7.10
2019-04-01T04:12:06.341Z,7.00
2019-04-01T04:16:59.437Z,6.80
2019-04-01T04:21:51.942Z,6.60
2019-04-01T04:26:44.327Z,6.40
2019-04-01T04:31:36.646Z,6.10
2019-04-01T04:36:30.435Z,6.00
2019-04-01T04:41:23.061Z,5.90
2019-04-01T04:46:15.587Z,5.90
2019-04-01T04:51:08.082Z,5.70
2019-04-01T04:56:00.532Z,5.60
2019-04-01T05:00:52.954Z,5.40
2019-04-01T05:05:45.525Z,5.30
2019-04-01T05:10:38.013Z,5.20
2019-04-01T05:15:30.400Z,5.10
2019-04-01T05:20:23.001Z,5.00
2019-04-01T05:25:15.987Z,5.10
2019-04-01T05:30:09.777Z,5.10
2019-04-01T05:35:05.194Z,5.10
2019-04-01T05:39:58.533Z,5.10
2019-04-01T05:44:51.230Z,5.10
2019-04-01T05:49:43.717Z,5.20
2019-04-01T05:54:36.560Z,5.30
2019-04-01T05:59:29.174Z,5.40
2019-04-01T06:04:21.885Z,5.50
2019-04-01T06:09:14.599Z,5.70
2019-04-01T06:14:07.397Z,6.00
2019-04-01T06:19:00.789Z,6.20
2019-04-01T06:23:53.453Z,6.50
2019-04-01T06:28:45.962Z,6.80
2019-04-01T06:33:38.614Z,7.00
2019-04-01T06:38:31.270Z,7.50
2019-04-01T06:43:24.052Z,8.10
2019-04-01T06:48:16.721Z,8.60
2019-04-01T06:53:09.364Z,9.00
2019-04-01T06:58:01.872Z,9.50
2019-04-01T07:02:54.255Z,9.90
2019-04-01T07:07:47.115Z,10.40
2019-04-01T07:12:39.802Z,10.60
2019-04-01T07:17:32.505Z,10.90
2019-04-01T07:22:25.219Z,11.20
2019-04-01T07:27:17.579Z,11.80
2019-04-01T07:32:09.936Z,12.20
2019-04-01T07:37:02.942Z,12.50
2019-04-01T07:41:55.582Z,13.20
2019-04-01T07:46:48.280Z,14.70
2019-04-01T07:51:41.151Z,15.90
2019-04-01T07:56:33.679Z,17.30
2019-04-01T08:01:26.265Z,17.20
2019-04-01T08:06:19.081Z,17.10
2019-04-01T08:11:11.758Z,17.80
2019-04-01T08:16:04.054Z,18.50
2019-04-01T08:20:56.862Z,17.50
2019-04-01T08:25:49.193Z,17.20
2019-04-01T08:30:41.670Z,17.20
2019-04-01T08:35:34.613Z,17.90
2019-04-01T08:40:26.977Z,19.20
2019-04-01T08:45:19.506Z,20.30
2019-04-01T08:50:12.347Z,21.30
2019-04-01T08:55:06.817Z,21.70
2019-04-01T08:59:59.404Z,21.60
2019-04-01T09:04:51.626Z,22.40
2019-04-01T09:09:44.297Z,22.80
2019-04-01T09:14:37.764Z,22.90
2019-04-01T09:19:30.121Z,22.20
2019-04-01T09:24:22.833Z,21.90
2019-04-01T09:29:15.279Z,22.00
2019-04-01T09:34:08.017Z,21.80
2019-04-01T09:39:00.392Z,22.20
2019-04-01T09:43:53.023Z,23.10
2019-04-01T09:48:45.723Z,23.10
2019-04-01T09:53:38.047Z,22.90
2019-04-01T09:58:30.525Z,23.90
2019-04-01T10:03:23.222Z,25.00
2019-04-01T10:08:15.826Z,26.10
2019-04-01T10:13:08.509Z,26.40
2019-04-01T10:18:01.024Z,26.00
2019-04-01T10:22:53.801Z,25.80
2019-04-01T10:27:46.785Z,25.00
2019-04-01T10:32:39.608Z,24.60
2019-04-01T10:37:31.915Z,25.40
2019-04-01T10:42:24.565Z,26.70
2019-04-01T10:47:17.981Z,27.00
2019-04-01T10:52:10.713Z,27.00
2019-04-01T10:57:03.260Z,26.60
2019-04-01T11:01:56.160Z,26.90
2019-04-01T11:06:48.951Z,27.20
2019-04-01T11:11:41.406Z,27.00
2019-04-01T11:16:34.586Z,26.60
2019-04-01T11:21:38.392Z,27.00
2019-04-01T11:26:30.766Z,27.90
2019-04-01T11:31:24.916Z,27.50
2019-04-01T11:36:22.918Z,26.50
2019-04-01T11:41:24.423Z,26.30
2019-04-01T11:46:17.532Z,27.20
2019-04-01T11:51:10.082Z,27.20
2019-04-01T11:56:03.120Z,26.10
2019-04-01T12:00:55.763Z,26.50
2019-04-01T12:05:48.170Z,26.40
2019-04-01T12:10:40.816Z,26.40
2019-04-01T12:15:33.645Z,26.90
2019-04-01T12:20:26.375Z,27.00
2019-04-01T12:25:18.766Z,27.20
2019-04-01T12:30:11.757Z,27.30
2019-04-01T12:35:04.840Z,27.70
2019-04-01T12:39:57.188Z,27.60
2019-04-01T12:44:49.377Z,27.60
2019-04-01T12:49:42.113Z,27.90
2019-04-01T12:54:34.389Z,28.20
2019-04-01T12:59:27.154Z,27.20
2019-04-01T13:04:19.518Z,27.40
2019-04-01T13:09:12.021Z,27.00
2019-04-01T13:14:05.182Z,27.50
2019-04-01T13:18:57.693Z,28.40
2019-04-01T13:23:50.489Z,28.80
2019-04-01T13:28:42.994Z,28.50
2019-04-01T13:33:35.738Z,27.40
2019-04-01T13:38:28.129Z,27.00
2019-04-01T13:43:20.545Z,27.20
2019-04-01T13:48:13.009Z,26.90
2019-04-01T13:53:05.578Z,27.10
2019-04-01T13:57:58.227Z,27.20
2019-04-01T14:02:50.926Z,27.30
2019-04-01T14:07:43.419Z,27.70
2019-04-01T14:12:35.885Z,26.20
2019-04-01T14:17:28.721Z,25.90
2019-04-01T14:22:20.963Z,25.10
2019-04-01T14:27:13.094Z,24.50
2019-04-01T14:32:05.685Z,24.00
2019-04-01T14:36:58.213Z,23.80
2019-04-01T14:41:50.837Z,22.80
2019-04-01T14:46:43.628Z,21.80
2019-04-01T14:51:35.965Z,21.60
2019-04-01T14:56:28.693Z,21.60
2019-04-01T15:01:21.049Z,21.10
2019-04-01T15:06:13.833Z,20.50
2019-04-01T15:11:06.357Z,20.20
2019-04-01T15:15:58.584Z,20.50
2019-04-01T15:20:51.630Z,20.50
2019-04-01T15:25:44.161Z,20.30
2019-04-01T15:30:36.654Z,19.90
2019-04-01T15:35:29.243Z,19.70
2019-04-01T15:40:21.850Z,19.60
2019-04-01T15:45:14.839Z,19.50
2019-04-01T15:50:07.485Z,19.60
2019-04-01T15:55:00.097Z,19.60
2019-04-01T15:59:52.437Z,19.50
2019-04-01T16:04:45.021Z,19.40
2019-04-01T16:09:37.331Z,19.10
2019-04-01T16:14:29.753Z,18.90
2019-04-01T16:19:22.289Z,18.80
2019-04-01T16:24:15.335Z,18.60
2019-04-01T16:29:09.025Z,18.70
2019-04-01T16:34:01.371Z,18.70
2019-04-01T16:38:53.855Z,18.60
2019-04-01T16:43:46.429Z,18.40
2019-04-01T16:48:39.276Z,18.30
2019-04-01T16:53:31.749Z,18.20
2019-04-01T16:58:24.586Z,18.00
2019-04-01T17:03:19.372Z,17.80
2019-04-01T17:08:12.153Z,17.70
2019-04-01T17:13:06.247Z,17.70
2019-04-01T17:17:58.651Z,17.60
2019-04-01T17:22:51.639Z,17.40
2019-04-01T17:27:44.062Z,17.30
2019-04-01T17:32:36.585Z,17.00
2019-04-01T17:37:29.481Z,16.70
2019-04-01T17:42:22.101Z,16.60
2019-04-01T17:47:23.362Z,16.60
2019-04-01T17:52:15.489Z,16.50
2019-04-01T17:57:08.081Z,16.30
2019-04-01T18:02:00.804Z,16.20
2019-04-01T18:06:53.649Z,16.10
2019-04-01T18:11:48.468Z,15.90
2019-04-01T18:16:40.286Z,15.90
2019-04-01T18:21:33.365Z,15.70
2019-04-01T18:26:26.201Z,15.60
2019-04-01T18:31:18.938Z,15.20
2019-04-01T18:36:11.621Z,14.80
2019-04-01T18:41:04.269Z,14.40
2019-04-01T18:45:58.085Z,14.10
2019-04-01T18:50:50.883Z,13.80
2019-04-01T18:55:43.608Z,13.60
2019-04-01T19:00:36.494Z,13.50
2019-04-01T19:05:29.264Z,13.40
2019-04-01T19:10:21.745Z,13.20
2019-04-01T19:15:14.272Z,12.90
2019-04-01T19:20:07.544Z,12.70
2019-04-01T19:24:59.945Z,12.50
2019-04-01T19:29:52.433Z,12.20
2019-04-01T19:34:44.906Z,12.10
2019-04-01T19:39:37.572Z,11.80
2019-04-01T19:44:29.973Z,11.70
2019-04-01T19:49:22.670Z,11.60
2019-04-01T19:54:15.140Z,11.40
2019-04-01T19:59:07.898Z,11.30
2019-04-01T20:04:00.484Z,11.20
2019-04-01T20:08:52.910Z,11.10
2019-04-01T20:13:45.526Z,10.90
2019-04-01T20:18:38.148Z,10.70
2019-04-01T20:23:30.605Z,10.50
2019-04-01T20:28:23.214Z,10.30
2019-04-01T20:33:18.017Z,10.00
2019-04-01T20:38:09.517Z,9.90
2019-04-01T20:43:02.274Z,9.80
2019-04-01T20:47:56.109Z,9.70
2019-04-01T20:52:50.075Z,9.60
2019-04-01T20:57:42.634Z,9.50
2019-04-01T21:02:35.413Z,9.30
2019-04-01T21:07:28.358Z,9.30
2019-04-01T21:12:21.075Z,9.20
2019-04-01T21:17:13.453Z,9.10
2019-04-01T21:22:07.200Z,9.00
2019-04-01T21:27:00.669Z,8.90
2019-04-01T21:31:53.046Z,8.70
2019-04-01T21:36:45.713Z,8.50
2019-04-01T21:41:38.364Z,8.50
2019-04-01T21:46:31.125Z,8.50
2019-04-01T21:51:23.764Z,8.40
2019-04-01T21:56:16.138Z,8.20
2019-04-01T22:01:09.341Z,8.10
2019-04-01T22:06:01.809Z,7.90
2019-04-01T22:10:54.014Z,7.80
2019-04-01T22:15:46.469Z,7.80
2019-04-01T22:20:42.490Z,7.80
2019-04-01T22:25:33.105Z,7.80
2019-04-01T22:30:25.547Z,7.70
2019-04-01T22:35:18.282Z,7.70
2019-04-01T22:40:11.246Z,7.60
2019-04-01T22:45:07.286Z,7.40
2019-04-01T22:49:59.653Z,7.30
2019-04-01T22:54:52.286Z,7.30
2019-04-01T22:59:44.786Z,7.20
2019-04-01T23:04:39.193Z,7.20
2019-04-01T23:09:32.098Z,7.20
2019-04-01T23:14:24.937Z,7.10
2019-04-01T23:19:17.722Z,7.10
2019-04-01T23:24:10.390Z,7.20
2019-04-01T23:29:02.615Z,7.00
2019-04-01T23:33:55.069Z,7.00
2019-04-01T23:38:47.771Z,6.90
2019-04-01T23:43:40.280Z,6.90
2019-04-01T23:48:32.930Z,6.90
2019-04-01T23:53:25.473Z,6.90
2019-04-01T23:58:18.013Z,6.90
